Fort Carson, CO

1:06 AM MDT on October 26, 2014 (GMT -0600)
Butts Army Air Field | Change Station
CLOSE
Current Station
Airport
Location: Fort Carson,
Elevation: 5869 ft
Nearby Weather Stations

Elev 5869 ft 38.68 °N, 104.76 °W | Updated 8 minutes ago

Clear
Clear
52 °F
Feels Like 52 °F
N
6
Wind Variable Wind from WNW

Today
High -- | Low -- °F
--% Chance of Precip.
Yesterday
High -- | Low -- °F
Precip. -- in
7:19 AM 6:06 PM
Waxing Crescent, 6% visible
Pressure 29.86 in
Visibility 10.0 miles
Clouds Clear
Dew Point 26 °F
Humidity 35%
Rainfall 0.00 in
Snow Depth Not available.
UV 0 out of 12
Pollen 3.00 out of 12
Ozone Good
PM2.5 Good
Flu Activity Sporadic
METAR KFCS 260658Z AUTO 30005KT 10SM CLR 11/M04 A3000 RMK AO2 SLP112 T01141036 402610072

More Conditions Fewer Conditions

Pressure 29.86 in
Visibility 10.0 miles
Clouds Clear
Dew Point 26 °F
Humidity 35%
Rainfall 0.00 in
Snow Depth Not available.
UV 0 out of 12
Pollen 3.00 out of 12
Ozone Good
PM2.5 Good
Flu Activity Sporadic
METAR KFCS 260658Z AUTO 30005KT 10SM CLR 11/M04 A3000 RMK AO2 SLP112 T01141036 402610072

More Conditions Fewer Conditions

10-Day Weather Forecast

Almanac

Astronomy

Oct. 26, 2014 Rise Set
Actual Time 7:19 AM MDT 6:06 PM MDT
Civil Twilight 6:52 AM MDT 6:33 PM MDT
Nautical Twilight 6:21 AM MDT 7:04 PM MDT
Astronomical Twilight 5:50 AM MDT 7:35 PM MDT
Moon 9:58 AM MDT 8:21 PM MDT
Length of Visible Light 11h 40m
Length of Day
10h 46m
Tomorrow will be 2m 17s shorter.
Waxing Crescent, 6% of the Moon is Illuminated
Today
Waxing Crescent
Oct 30
First Quarter
Nov 6
Full
Nov 14
Last Quarter
Nov 22
New

Today's Extremes

State Highs State Lows

Community

WunderPhotos

Upload Photos

1,765,115 photos uploaded!

Nearby

Air Quality

  Air Quality AQ Index Pollutant
Yesterday Good
OZONE
Yesterday Good
PM2.5
Current Good
OZONE
Current Good
PM2.5
Saturday Good
PM2.5
Saturday Good
OZONE
Sunday Good
PM2.5
Sunday Good
OZONE
Monday Good
PM2.5
Monday Good
OZONE

Snow Depth

Station Depth Elevation
Glen Cove 0 in 11460 ft
South Colony 0 in 10800 ft
Medano Pass 0 in 9620 ft
Ute Creek 0 in 10650 ft
Michigan Creek 0 in 10600 ft

Earthquake Activity

City Distance Mag. Time & Date
No recent earthquake activity has been reported nearby.
Minimum magnitude displayed is 2.5.

Coastal Water Temperatures

Place Temperature
No Stations Reporting

Nearby Weather Stations